createdAt,value
2022-09-30T00:01:47.318Z,12.30
2022-09-30T00:04:18.232Z,12.40
2022-09-30T00:06:46.659Z,13.40
2022-09-30T00:09:15.256Z,12.80
2022-09-30T00:11:45.061Z,12.50
2022-09-30T00:14:17.703Z,13.50
2022-09-30T00:16:46.164Z,12.70
2022-09-30T00:19:14.671Z,12.70
2022-09-30T00:21:42.837Z,12.70
2022-09-30T00:24:11.433Z,12.70
2022-09-30T00:26:39.617Z,12.90
2022-09-30T00:29:07.963Z,13.30
2022-09-30T00:31:37.966Z,13.00
2022-09-30T00:34:11.247Z,13.70
2022-09-30T00:36:43.651Z,13.70
2022-09-30T00:39:14.713Z,13.00
2022-09-30T00:41:43.196Z,13.00
2022-09-30T00:44:50.965Z,13.60
2022-09-30T00:47:44.511Z,13.10
2022-09-30T00:50:26.220Z,13.20
2022-09-30T00:53:00.225Z,13.00
2022-09-30T00:55:35.925Z,13.10
2022-09-30T00:58:06.989Z,13.10
2022-09-30T01:00:35.677Z,13.20
2022-09-30T01:03:07.075Z,13.20
2022-09-30T01:05:36.282Z,13.30
2022-09-30T01:08:08.060Z,13.90
2022-09-30T01:10:37.198Z,13.30
2022-09-30T01:13:06.942Z,13.30
2022-09-30T01:15:46.974Z,13.30
2022-09-30T01:18:26.607Z,13.30
2022-09-30T01:21:07.340Z,13.30
2022-09-30T01:23:51.392Z,13.10
2022-09-30T01:26:53.888Z,13.20
2022-09-30T01:29:48.621Z,13.40
2022-09-30T01:32:29.459Z,13.40
2022-09-30T01:35:08.231Z,13.30
2022-09-30T01:37:44.572Z,13.20
2022-09-30T01:40:22.714Z,13.20
2022-09-30T01:42:57.674Z,14.10
2022-09-30T01:45:35.128Z,13.20
2022-09-30T01:48:10.331Z,13.30
2022-09-30T01:50:48.058Z,13.30
2022-09-30T01:53:24.949Z,13.30
2022-09-30T01:55:56.377Z,13.30
2022-09-30T01:58:30.661Z,13.20
2022-09-30T02:01:02.893Z,13.10
2022-09-30T02:03:36.464Z,13.20
2022-09-30T02:06:08.534Z,13.30
2022-09-30T02:08:41.651Z,13.20
2022-09-30T02:11:14.394Z,13.10
2022-09-30T02:13:49.801Z,13.10
2022-09-30T02:16:24.881Z,13.20
2022-09-30T02:18:58.601Z,13.20
2022-09-30T02:21:31.462Z,13.30
2022-09-30T02:24:05.658Z,13.40
2022-09-30T02:26:38.492Z,13.50
2022-09-30T02:29:12.172Z,13.40
2022-09-30T02:31:43.191Z,13.90
2022-09-30T02:34:15.484Z,13.40
2022-09-30T02:36:48.133Z,13.40
2022-09-30T02:39:23.647Z,13.40
2022-09-30T02:41:56.476Z,13.40
2022-09-30T02:44:24.890Z,13.50
2022-09-30T02:47:00.931Z,13.50
2022-09-30T02:49:38.421Z,13.50
2022-09-30T02:52:17.011Z,13.30
2022-09-30T02:54:54.730Z,13.20
2022-09-30T02:57:30.589Z,13.10
2022-09-30T03:00:00.935Z,13.00
2022-09-30T03:02:31.429Z,12.90
2022-09-30T03:05:01.034Z,13.00
2022-09-30T03:07:29.210Z,13.30
2022-09-30T03:09:58.755Z,13.00
2022-09-30T03:12:37.675Z,12.80
2022-09-30T03:15:30.513Z,12.80
2022-09-30T03:18:36.349Z,12.70
2022-09-30T03:21:25.733Z,12.50
2022-09-30T03:24:10.843Z,12.70
2022-09-30T03:26:48.493Z,12.60
2022-09-30T03:29:23.764Z,12.50
2022-09-30T03:32:03.831Z,12.30
2022-09-30T03:34:47.499Z,12.30
2022-09-30T03:37:24.935Z,12.30
2022-09-30T03:39:57.691Z,12.50
2022-09-30T03:42:29.273Z,12.20
2022-09-30T03:45:04.049Z,12.10
2022-09-30T03:47:35.729Z,12.10
2022-09-30T03:50:08.494Z,12.00
2022-09-30T03:52:41.392Z,12.00
2022-09-30T03:55:11.757Z,12.00
2022-09-30T03:57:40.200Z,11.90
2022-09-30T04:00:09.460Z,11.80
2022-09-30T04:02:37.691Z,11.90
2022-09-30T04:05:06.942Z,11.80
2022-09-30T04:07:35.287Z,11.70
2022-09-30T04:10:05.924Z,11.70
2022-09-30T04:12:36.944Z,11.60
2022-09-30T04:15:06.331Z,11.60
2022-09-30T04:17:34.451Z,11.60
2022-09-30T04:20:02.810Z,11.60
2022-09-30T04:22:31.098Z,11.80
2022-09-30T04:24:59.280Z,11.80
2022-09-30T04:27:30.273Z,11.80
2022-09-30T04:29:58.418Z,11.80
2022-09-30T04:32:26.708Z,12.20
2022-09-30T04:34:55.199Z,11.70
2022-09-30T04:37:24.038Z,11.60
2022-09-30T04:39:55.233Z,11.60
2022-09-30T04:42:23.343Z,11.70
2022-09-30T04:44:52.892Z,11.80
2022-09-30T04:47:21.013Z,11.40
2022-09-30T04:49:49.146Z,11.40
2022-09-30T04:52:17.257Z,11.30
2022-09-30T04:54:45.391Z,11.30
2022-09-30T04:57:14.037Z,11.40
2022-09-30T04:59:42.466Z,11.40
2022-09-30T05:02:12.816Z,11.90
2022-09-30T05:04:41.016Z,11.40
2022-09-30T05:07:09.170Z,12.10
2022-09-30T05:09:37.398Z,11.40
2022-09-30T05:12:05.651Z,11.30
2022-09-30T05:14:34.654Z,11.20
2022-09-30T05:17:03.103Z,11.20
2022-09-30T05:19:32.721Z,11.70
2022-09-30T05:22:00.885Z,11.90
2022-09-30T05:24:30.116Z,11.00
2022-09-30T05:26:58.277Z,11.50
2022-09-30T05:29:26.547Z,11.80
2022-09-30T05:31:54.745Z,11.30
2022-09-30T05:34:22.992Z,11.10
2022-09-30T05:36:53.191Z,11.10
2022-09-30T05:39:21.444Z,11.10
2022-09-30T05:41:52.515Z,11.20
2022-09-30T05:44:21.521Z,11.10
2022-09-30T05:46:49.746Z,11.10
2022-09-30T05:49:18.083Z,11.90
2022-09-30T05:51:46.221Z,11.50
2022-09-30T05:54:15.848Z,11.10
2022-09-30T05:56:43.933Z,11.20
2022-09-30T05:59:12.165Z,11.40
2022-09-30T06:01:40.325Z,11.20
2022-09-30T06:04:08.531Z,11.20
2022-09-30T06:06:36.993Z,11.20
2022-09-30T06:09:05.557Z,11.70
2022-09-30T06:11:35.277Z,11.20
2022-09-30T06:14:03.420Z,11.20
2022-09-30T06:16:32.099Z,11.20
2022-09-30T06:19:00.398Z,11.20
2022-09-30T06:21:29.089Z,11.10
2022-09-30T06:23:58.112Z,11.10
2022-09-30T06:26:26.232Z,11.10
2022-09-30T06:28:55.787Z,11.10
2022-09-30T06:31:24.282Z,11.00
2022-09-30T06:33:54.145Z,11.00
2022-09-30T06:36:22.257Z,11.00
2022-09-30T06:38:54.562Z,11.20
2022-09-30T06:41:27.580Z,11.10
2022-09-30T06:43:57.850Z,11.20
2022-09-30T06:46:30.869Z,11.20
2022-09-30T06:49:12.204Z,11.20
2022-09-30T06:51:42.145Z,11.20
2022-09-30T06:54:10.949Z,11.30
2022-09-30T06:56:39.208Z,11.30
2022-09-30T06:59:08.797Z,11.50
2022-09-30T07:01:39.852Z,11.60
2022-09-30T07:04:10.101Z,12.40
2022-09-30T07:06:39.380Z,11.70
2022-09-30T07:09:08.021Z,11.90
2022-09-30T07:11:37.285Z,11.90
2022-09-30T07:14:05.786Z,11.70
2022-09-30T07:16:35.752Z,11.70
2022-09-30T07:19:04.833Z,12.50
2022-09-30T07:21:33.251Z,12.00
2022-09-30T07:24:01.574Z,12.00
2022-09-30T07:26:31.129Z,12.10
2022-09-30T07:29:00.064Z,12.20
2022-09-30T07:31:34.131Z,12.20
2022-09-30T07:34:04.942Z,12.30
2022-09-30T07:36:34.630Z,12.40
2022-09-30T07:39:06.832Z,12.50
2022-09-30T07:41:37.856Z,12.60
2022-09-30T07:44:06.919Z,12.60
2022-09-30T07:46:39.091Z,12.70
2022-09-30T07:49:13.497Z,12.80
2022-09-30T07:51:45.165Z,12.90
2022-09-30T07:54:16.192Z,12.90
2022-09-30T07:57:09.383Z,13.60
2022-09-30T07:59:34.888Z,13.20
2022-09-30T08:02:03.174Z,13.30
2022-09-30T08:04:32.818Z,13.90
2022-09-30T08:07:03.370Z,13.40
2022-09-30T08:09:32.804Z,13.60
2022-09-30T08:12:03.462Z,13.70
2022-09-30T08:14:31.731Z,14.00
2022-09-30T08:17:00.763Z,14.00
2022-09-30T08:19:33.612Z,14.10
2022-09-30T08:24:36.745Z,14.40
2022-09-30T08:27:05.310Z,14.60
2022-09-30T08:29:53.793Z,14.70
2022-09-30T08:32:21.902Z,14.90
2022-09-30T08:34:51.480Z,14.70
2022-09-30T08:37:19.637Z,14.70
2022-09-30T08:39:48.530Z,14.60
2022-09-30T08:42:49.699Z,14.60
2022-09-30T08:45:27.935Z,14.60
2022-09-30T08:48:08.130Z,14.80
2022-09-30T08:50:50.162Z,15.10
2022-09-30T08:53:24.539Z,15.50
2022-09-30T08:55:57.143Z,16.00
2022-09-30T08:58:29.374Z,15.90
2022-09-30T09:01:03.947Z,16.20
2022-09-30T09:03:34.285Z,16.40
2022-09-30T09:06:17.450Z,16.40
2022-09-30T09:09:06.455Z,16.60
2022-09-30T09:11:48.055Z,17.30
2022-09-30T09:14:28.794Z,17.80
2022-09-30T09:17:15.677Z,18.60
2022-09-30T09:19:49.178Z,18.80
2022-09-30T09:22:22.469Z,18.90
2022-09-30T09:24:57.718Z,19.30
2022-09-30T09:27:32.272Z,19.00
2022-09-30T09:30:06.646Z,19.10
2022-09-30T09:32:36.647Z,18.70
2022-09-30T09:35:14.949Z,18.50
2022-09-30T09:38:12.225Z,18.40
2022-09-30T09:40:57.511Z,18.60
2022-09-30T09:43:36.708Z,18.40
2022-09-30T09:46:14.975Z,18.30
2022-09-30T09:48:44.548Z,18.20
2022-09-30T09:51:21.163Z,18.70
2022-09-30T09:53:53.463Z,18.70
2022-09-30T09:56:32.118Z,19.10
2022-09-30T09:59:22.178Z,18.90
2022-09-30T10:01:52.225Z,19.50
2022-09-30T10:04:24.262Z,20.00
2022-09-30T10:06:55.115Z,20.30
2022-09-30T10:09:27.839Z,21.00
2022-09-30T10:12:30.318Z,21.50
2022-09-30T10:15:02.296Z,21.80
2022-09-30T10:17:33.058Z,22.90
2022-09-30T10:20:06.779Z,23.70
2022-09-30T10:22:36.644Z,24.00
2022-09-30T10:25:21.507Z,24.10
2022-09-30T10:27:53.428Z,24.40
2022-09-30T10:30:44.407Z,24.80
2022-09-30T10:33:18.994Z,24.70
2022-09-30T10:36:10.722Z,24.50
2022-09-30T10:38:47.841Z,23.90
2022-09-30T10:41:23.916Z,23.00
2022-09-30T10:43:54.666Z,23.30
2022-09-30T10:46:26.938Z,22.60
2022-09-30T10:48:57.951Z,23.40
2022-09-30T10:51:30.209Z,23.60
2022-09-30T10:53:58.419Z,23.30
2022-09-30T10:56:40.942Z,23.90
2022-09-30T10:59:19.841Z,24.60
2022-09-30T11:01:55.208Z,24.90
2022-09-30T11:04:30.656Z,24.30
2022-09-30T11:07:04.998Z,24.30
2022-09-30T11:09:39.199Z,24.70
2022-09-30T11:12:15.489Z,24.70
2022-09-30T11:14:49.990Z,23.40
2022-09-30T11:17:28.989Z,23.50
2022-09-30T11:20:08.854Z,24.20
2022-09-30T11:22:44.696Z,24.00
2022-09-30T11:25:16.275Z,24.40
2022-09-30T11:28:09.578Z,24.40
2022-09-30T11:30:48.313Z,24.10
2022-09-30T11:33:36.173Z,23.60
2022-09-30T11:36:14.286Z,23.60
2022-09-30T11:38:57.523Z,24.10
2022-09-30T11:41:30.529Z,24.10
2022-09-30T11:44:09.332Z,24.90
2022-09-30T11:46:53.115Z,24.30
2022-09-30T11:50:06.018Z,24.50
2022-09-30T11:52:42.660Z,23.80
2022-09-30T11:55:37.606Z,25.10
2022-09-30T11:58:36.084Z,25.20
2022-09-30T12:01:15.388Z,25.10
2022-09-30T12:03:47.158Z,24.20
2022-09-30T12:06:22.965Z,24.70
2022-09-30T12:08:56.866Z,24.80
2022-09-30T12:11:38.731Z,24.70
2022-09-30T12:14:16.064Z,24.90
2022-09-30T12:16:48.402Z,25.10
2022-09-30T12:19:25.283Z,26.20
2022-09-30T12:21:59.144Z,25.90
2022-09-30T12:24:33.256Z,27.20
2022-09-30T12:27:02.051Z,27.00
2022-09-30T12:29:52.997Z,26.40
2022-09-30T12:32:36.873Z,26.60
2022-09-30T12:35:20.465Z,26.70
2022-09-30T12:38:07.690Z,26.00
2022-09-30T12:40:58.737Z,26.10
2022-09-30T12:43:56.741Z,26.60
2022-09-30T12:46:44.064Z,26.80
2022-09-30T12:49:17.876Z,26.70
2022-09-30T12:51:50.495Z,28.70
2022-09-30T12:54:22.905Z,29.10
2022-09-30T12:56:59.379Z,29.10
2022-09-30T12:59:31.078Z,30.00
2022-09-30T13:02:01.743Z,30.50
2022-09-30T13:04:36.979Z,29.60
2022-09-30T13:07:19.546Z,29.00
2022-09-30T13:10:19.017Z,29.30
2022-09-30T13:12:47.774Z,30.20
2022-09-30T13:15:42.230Z,28.50
2022-09-30T13:18:47.612Z,29.10
2022-09-30T13:21:23.557Z,27.80
2022-09-30T13:23:52.727Z,28.10
2022-09-30T13:26:55.747Z,29.30
2022-09-30T13:29:48.478Z,30.70
2022-09-30T13:32:33.496Z,30.10
2022-09-30T13:35:02.091Z,31.60
2022-09-30T13:37:40.621Z,30.20
2022-09-30T13:40:25.508Z,31.60
2022-09-30T13:43:04.505Z,31.60
2022-09-30T13:45:39.520Z,31.80
2022-09-30T13:48:13.613Z,30.70
2022-09-30T13:50:47.020Z,31.60
2022-09-30T13:53:23.825Z,31.80
2022-09-30T13:55:54.754Z,30.80
2022-09-30T13:58:50.685Z,31.20
2022-09-30T14:01:32.438Z,31.50
2022-09-30T14:04:18.780Z,33.30
2022-09-30T14:07:05.792Z,33.50
2022-09-30T14:09:48.536Z,34.40
2022-09-30T14:12:32.489Z,34.30
2022-09-30T14:15:43.215Z,31.60
2022-09-30T14:18:41.631Z,33.10
2022-09-30T14:21:25.863Z,31.50
2022-09-30T14:24:04.275Z,32.90
2022-09-30T14:26:52.941Z,32.70
2022-09-30T14:29:29.238Z,32.10
2022-09-30T14:31:57.460Z,33.00
2022-09-30T14:34:27.379Z,33.50
2022-09-30T14:36:56.176Z,32.20
2022-09-30T14:39:30.296Z,32.30
2022-09-30T14:42:02.668Z,31.70
2022-09-30T14:44:34.524Z,31.00
2022-09-30T14:47:04.544Z,30.70
2022-09-30T14:49:37.454Z,30.30
2022-09-30T14:52:06.660Z,30.90
2022-09-30T14:54:35.466Z,31.70
2022-09-30T14:57:17.434Z,32.90
2022-09-30T14:59:45.631Z,32.60
2022-09-30T15:02:20.278Z,33.60
2022-09-30T15:04:52.096Z,32.60
2022-09-30T15:07:20.366Z,34.00
2022-09-30T15:09:50.957Z,33.60
2022-09-30T15:12:22.939Z,34.00
2022-09-30T15:14:53.378Z,33.20
2022-09-30T15:17:24.332Z,32.70
2022-09-30T15:19:52.878Z,33.20
2022-09-30T15:22:22.770Z,32.20
2022-09-30T15:24:52.671Z,30.70
2022-09-30T15:27:26.393Z,30.90
2022-09-30T15:29:58.352Z,30.90
2022-09-30T15:32:29.771Z,30.30
2022-09-30T15:34:58.574Z,31.20
2022-09-30T15:37:33.409Z,30.90
2022-09-30T15:40:21.226Z,30.80
2022-09-30T15:42:56.354Z,29.10
2022-09-30T15:45:34.969Z,29.40
2022-09-30T15:48:06.077Z,28.50
2022-09-30T15:50:38.886Z,26.70
2022-09-30T15:53:15.715Z,24.30
2022-09-30T15:55:45.648Z,23.50
2022-09-30T15:58:37.783Z,21.90
2022-09-30T16:01:16.782Z,21.30
2022-09-30T16:03:50.973Z,20.90
2022-09-30T16:06:27.055Z,20.80
2022-09-30T16:09:01.342Z,20.60
2022-09-30T16:11:34.727Z,20.40
2022-09-30T16:14:06.757Z,20.30
2022-09-30T16:16:37.442Z,20.20
2022-09-30T16:19:07.395Z,20.40
2022-09-30T16:21:45.061Z,20.40
2022-09-30T16:24:47.522Z,20.00
2022-09-30T16:27:30.194Z,19.60
2022-09-30T16:30:00.949Z,19.50
2022-09-30T16:32:32.844Z,19.20
2022-09-30T16:35:01.202Z,18.90
2022-09-30T16:37:29.388Z,18.90
2022-09-30T16:40:03.295Z,18.90
2022-09-30T16:42:32.978Z,18.70
2022-09-30T16:45:02.665Z,19.00
2022-09-30T16:47:33.428Z,18.90
2022-09-30T16:50:01.978Z,18.90
2022-09-30T16:52:31.388Z,18.90
2022-09-30T16:54:59.608Z,18.50
2022-09-30T16:57:27.945Z,18.70
2022-09-30T16:59:56.107Z,18.40
2022-09-30T17:02:26.130Z,18.40
2022-09-30T17:04:54.403Z,18.40
2022-09-30T17:07:22.519Z,18.40
2022-09-30T17:09:50.738Z,18.20
2022-09-30T17:12:19.237Z,18.00
2022-09-30T17:14:47.508Z,18.00
2022-09-30T17:17:18.906Z,17.90
2022-09-30T17:19:48.441Z,17.70
2022-09-30T17:22:16.860Z,17.60
2022-09-30T17:24:45.336Z,17.50
2022-09-30T17:27:13.567Z,17.30
2022-09-30T17:29:42.320Z,17.30
2022-09-30T17:32:11.343Z,17.20
2022-09-30T17:34:40.355Z,17.00
2022-09-30T17:37:09.853Z,16.90
2022-09-30T17:39:38.030Z,16.90
2022-09-30T17:42:23.830Z,16.80
2022-09-30T17:44:52.374Z,16.90
2022-09-30T17:47:21.341Z,16.80
2022-09-30T17:49:49.561Z,16.70
2022-09-30T17:52:19.076Z,16.70
2022-09-30T17:54:52.083Z,16.70
2022-09-30T17:57:21.266Z,16.70
2022-09-30T17:59:49.521Z,16.60
2022-09-30T18:02:18.458Z,16.50
2022-09-30T18:04:47.443Z,16.50
2022-09-30T18:07:15.766Z,16.40
2022-09-30T18:09:45.372Z,16.30
2022-09-30T18:12:13.591Z,16.20
2022-09-30T18:14:43.801Z,16.20
2022-09-30T18:17:11.972Z,16.20
2022-09-30T18:19:40.213Z,16.10
2022-09-30T18:22:08.603Z,16.10
2022-09-30T18:24:54.464Z,16.00
2022-09-30T18:27:24.166Z,16.30
2022-09-30T18:29:53.049Z,15.90
2022-09-30T18:32:21.356Z,15.90
2022-09-30T18:34:49.715Z,15.90
2022-09-30T18:37:17.993Z,16.00
2022-09-30T18:39:46.209Z,15.80
2022-09-30T18:42:14.699Z,15.70
2022-09-30T18:44:44.318Z,15.70
2022-09-30T18:47:12.558Z,15.70
2022-09-30T18:49:40.755Z,15.60
2022-09-30T18:52:08.918Z,15.70
2022-09-30T18:54:37.082Z,16.60
2022-09-30T18:57:05.796Z,15.60
2022-09-30T18:59:34.068Z,15.60
2022-09-30T19:02:04.154Z,15.60
2022-09-30T19:04:32.386Z,15.60
2022-09-30T19:07:00.536Z,15.50
2022-09-30T19:09:28.687Z,15.60
2022-09-30T19:11:56.859Z,15.50
2022-09-30T19:14:25.023Z,15.60
2022-09-30T19:16:53.713Z,15.60
2022-09-30T19:19:23.855Z,15.50
2022-09-30T19:21:52.094Z,15.40
2022-09-30T19:24:24.094Z,15.40
2022-09-30T19:26:55.620Z,15.30
2022-09-30T19:29:24.966Z,15.40
2022-09-30T19:31:53.218Z,15.40
2022-09-30T19:34:31.058Z,15.30
2022-09-30T19:37:00.584Z,15.30
2022-09-30T19:39:39.815Z,15.20
2022-09-30T19:42:15.077Z,15.20
2022-09-30T19:44:43.187Z,15.20
2022-09-30T19:47:11.426Z,15.20
2022-09-30T19:49:40.940Z,15.20
2022-09-30T19:52:17.340Z,15.20
2022-09-30T19:54:48.389Z,15.10
2022-09-30T19:57:16.568Z,15.10
2022-09-30T19:59:45.111Z,15.10
2022-09-30T20:02:13.323Z,15.10
2022-09-30T20:04:43.835Z,15.20
2022-09-30T20:07:12.028Z,15.20
2022-09-30T20:09:40.575Z,15.10
2022-09-30T20:12:08.798Z,15.00
2022-09-30T20:14:54.746Z,14.90
2022-09-30T20:17:23.556Z,15.00
2022-09-30T20:20:06.994Z,14.90
2022-09-30T20:22:35.276Z,14.90
2022-09-30T20:25:03.569Z,14.90
2022-09-30T20:27:33.009Z,15.10
2022-09-30T20:30:01.179Z,15.10
2022-09-30T20:32:30.821Z,15.10
2022-09-30T20:35:00.281Z,15.10
2022-09-30T20:37:29.418Z,15.10
2022-09-30T20:39:57.794Z,15.10
2022-09-30T20:42:32.813Z,15.10
2022-09-30T20:45:02.718Z,15.00
2022-09-30T20:47:31.558Z,15.00
2022-09-30T20:50:04.553Z,15.10
2022-09-30T20:52:32.681Z,15.10
2022-09-30T20:55:00.918Z,15.10
2022-09-30T20:57:30.129Z,15.00
2022-09-30T20:59:59.698Z,15.00
2022-09-30T21:02:29.027Z,15.00
2022-09-30T21:04:58.674Z,15.00
2022-09-30T21:07:28.200Z,14.90
2022-09-30T21:09:57.400Z,14.90
2022-09-30T21:12:25.577Z,14.90
2022-09-30T21:14:53.701Z,14.80
2022-09-30T21:17:21.876Z,14.90
2022-09-30T21:19:49.995Z,14.80
2022-09-30T21:22:18.278Z,14.70
2022-09-30T21:24:48.173Z,14.60
2022-09-30T21:27:16.291Z,14.80
2022-09-30T21:29:44.685Z,14.80
2022-09-30T21:32:12.851Z,14.80
2022-09-30T21:34:41.627Z,14.80
2022-09-30T21:37:09.790Z,14.70
2022-09-30T21:39:37.912Z,14.60
2022-09-30T21:42:07.500Z,14.50
2022-09-30T21:44:35.654Z,14.50
2022-09-30T21:47:03.800Z,14.40
2022-09-30T21:49:32.059Z,14.50
2022-09-30T21:52:00.300Z,14.50
2022-09-30T21:54:28.711Z,14.70
2022-09-30T21:56:56.893Z,14.60
2022-09-30T21:59:26.381Z,14.50
2022-09-30T22:01:54.553Z,14.70
2022-09-30T22:04:22.712Z,14.50
2022-09-30T22:06:50.889Z,14.40
2022-09-30T22:09:18.997Z,14.40
2022-09-30T22:11:48.161Z,14.20
2022-09-30T22:14:16.845Z,14.30
2022-09-30T22:16:47.234Z,14.40
2022-09-30T22:19:15.816Z,14.40
2022-09-30T22:21:43.967Z,14.30
2022-09-30T22:24:12.170Z,14.20
2022-09-30T22:26:42.531Z,14.20
2022-09-30T22:29:12.724Z,14.20
2022-09-30T22:31:41.407Z,14.20
2022-09-30T22:34:32.293Z,14.20
2022-09-30T22:37:18.183Z,14.20
2022-09-30T22:39:46.284Z,14.90
2022-09-30T22:42:14.409Z,14.10
2022-09-30T22:44:42.528Z,14.20
2022-09-30T22:47:11.895Z,14.10
2022-09-30T22:49:41.448Z,14.20
2022-09-30T22:52:10.140Z,14.20
2022-09-30T22:54:38.556Z,14.20
2022-09-30T22:57:07.901Z,14.30
2022-09-30T22:59:37.225Z,14.30
2022-09-30T23:02:05.813Z,14.20
2022-09-30T23:04:34.449Z,14.10
2022-09-30T23:07:07.632Z,14.20
2022-09-30T23:09:35.771Z,14.10
2022-09-30T23:12:03.894Z,14.10
2022-09-30T23:14:31.994Z,14.00
2022-09-30T23:17:00.137Z,14.10
2022-09-30T23:19:28.239Z,14.10
2022-09-30T23:21:56.354Z,14.30
2022-09-30T23:24:25.899Z,14.10
2022-09-30T23:26:53.985Z,14.20
2022-09-30T23:29:22.104Z,14.10
2022-09-30T23:31:50.241Z,14.10
2022-09-30T23:34:18.815Z,14.00
2022-09-30T23:36:46.927Z,14.20
2022-09-30T23:39:19.446Z,14.00
2022-09-30T23:41:49.819Z,14.10
2022-09-30T23:44:19.185Z,14.50
2022-09-30T23:47:01.662Z,13.80
2022-09-30T23:49:32.419Z,13.80
2022-09-30T23:52:00.535Z,14.00
2022-09-30T23:54:28.680Z,14.60
2022-09-30T23:56:58.405Z,13.80
2022-09-30T23:59:26.533Z,14.10
